Historyczne dane pomiarowe

Dodano dane terminowe – wersja testowa.

Dane z okresu 1951-2019

Wersja bazy: 1.34 [2019-03-16, lista zmian], aktualizacja planowana na 2019-04-15

Dane meteo z obszaru Polski uzyskane na podstawie danych udostępnionych przez Instytut Meteorologii i Gospodarki Wodnej – Państwowy Instytut Badawczy.

 

Wybierz Datę:    

       

TemperaturaWilgotnośćWiatrCiśnienieOpadyŚniegCzas trwania zjawisk
 Stacja t tx tn tng RH VA  wxwx mslp ppp RRR   cm mm wxwxwxwxwxwxwx
1956-10-11 0.4 8.4 -3.0- 82.3- 3.7 1.3---- 0.0------------
1956-10-12 4.0 7.4 -3.2- 80.3- 5.3 2.0---- 0.0------------
1956-10-13 6.0 9.1 -0.5- 72.8- 7.7 2.3---- 1.5------------
1956-10-14 6.4 10.7 4.5- 69.3- 5.3 4.3---- 0.5------------
1956-10-15 0.0 9.2 -3.5- 81.8- 0.7 2.3---- 0.0------------
1956-10-16 0.2 9.2 -5.6- 83.3- 0.3 1.3---- 0.0------------
1956-10-17 4.2 12.8 -6.1- 64.8- 0.0 1.3---- 0.0------------
1956-10-18 6.6 10.8 -1.5- 67.8- 4.0 3.0---- 0.1------------
1956-10-19 7.4 9.6 5.9- 80.0- 8.0 1.3---- 0.1------------
1956-10-20 9.2 10.3 6.9- 89.8- 8.0 1.7---- 0.5------------
1956-10-21 8.4 13.7 5.0- 94.8- 5.0 1.0---- 0.0------------
1956-10-22 10.2 14.5 3.2- 94.5- 6.3 1.3---- 0.0------------
1956-10-23 9.4 11.0 6.9- 99.0- 8.0 1.0---- 0.0------------
1956-10-24 9.1 11.7 7.5- 98.8- 8.0 1.0---- 0.0------------
1956-10-25 8.2 9.8 7.5- 99.3- 6.7 3.7---- 0.0------------
1956-10-26 7.4 12.7 4.4- 92.3- 5.0 1.7---- 0.0------------
1956-10-27 10.6 15.7 2.5- 87.3- 6.0 1.0---- 0.0------------
1956-10-28 9.6 14.4 7.8- 89.5- 8.0 1.7---- 4.1------------
1956-10-29 3.3 8.8 2.2- 91.8- 7.0 2.7---- 3.5------------
1956-10-30 2.8 5.2 1.9- 96.0- 8.0 1.7---- 0.0------------
1956-10-31 -5.5 3.0 -7.3- 85.5- 5.0 5.0---- 0.0------------
1956-11-01 -3.0 5.1-13.7- 94.5- 0.3 1.0---- 0.0------------
1956-11-02 -0.7 4.2 -6.1- 87.0- 5.7 1.7---- 0.0------------
1956-11-03 -1.6 1.8 -3.4- 92.8- 6.7 4.3---- 0.0------------
1956-11-04 -5.2 2.7-10.7- 82.0- 2.3 1.0---- 0.0------------
1956-11-05 -2.2 -0.7 -9.0- 89.0- 8.0 2.7---- 4.0------------
1956-11-06 0.3 1.9 -1.9- 92.5- 8.0 3.0---- 1.9-- 7---------
1956-11-07 -1.9 0.9 -4.3- 84.3- 8.0 7.0---- 6.4-- 8---------
1956-11-08 -5.6 -2.5 -8.9- 83.3- 3.0 3.3---- 0.3-- 8---------
1956-11-09-12.8 -3.7-17.7- 61.0- 3.0 1.0---- 0.0-- 7---------
122.0 ms

 

Źródłem pochodzenia danych jest Instytut Meteorologii i Gospodarki Wodnej – Państwowy Instytut Badawczy. Dane Instytutu Meteorologii i Gospodarki Wodnej – Państwowego Instytutu Badawczego zostały przetworzone.

Dane źródłowe można odnaleźć na stronie https://dane.imgw.pl